sensor_id;sensor_type;location;lat;lon;timestamp;pressure;altitude;pressure_sealevel;temperature;humidity
50133;BME280;46340;53.148;8.204;2022-10-16T00:00:54;100811.22;;;11.73;100.00
50133;BME280;46340;53.148;8.204;2022-10-16T00:03:21;100813.50;;;11.71;100.00
50133;BME280;46340;53.148;8.204;2022-10-16T00:05:46;100810.66;;;11.67;100.00
50133;BME280;46340;53.148;8.204;2022-10-16T00:08:12;100825.66;;;11.66;100.00
50133;BME280;46340;53.148;8.204;2022-10-16T00:10:38;100822.31;;;11.61;100.00
50133;BME280;46340;53.148;8.204;2022-10-16T00:13:04;100822.78;;;11.63;100.00
50133;BME280;46340;53.148;8.204;2022-10-16T00:15:30;100815.63;;;11.62;100.00
50133;BME280;46340;53.148;8.204;2022-10-16T00:17:57;100809.66;;;11.60;100.00
50133;BME280;46340;53.148;8.204;2022-10-16T00:20:23;100822.56;;;11.56;100.00
50133;BME280;46340;53.148;8.204;2022-10-16T00:22:48;100827.63;;;11.54;100.00
50133;BME280;46340;53.148;8.204;2022-10-16T00:25:13;100828.47;;;11.54;100.00
50133;BME280;46340;53.148;8.204;2022-10-16T00:27:39;100826.84;;;11.53;100.00
50133;BME280;46340;53.148;8.204;2022-10-16T00:30:04;100837.34;;;11.47;100.00
50133;BME280;46340;53.148;8.204;2022-10-16T00:32:30;100829.06;;;11.47;100.00
50133;BME280;46340;53.148;8.204;2022-10-16T00:34:55;100825.59;;;11.51;100.00
50133;BME280;46340;53.148;8.204;2022-10-16T00:37:21;100830.53;;;11.45;100.00
50133;BME280;46340;53.148;8.204;2022-10-16T00:39:46;100841.41;;;11.38;100.00
50133;BME280;46340;53.148;8.204;2022-10-16T00:42:15;100839.06;;;11.40;100.00
50133;BME280;46340;53.148;8.204;2022-10-16T00:47:14;100844.41;;;11.33;100.00
50133;BME280;46340;53.148;8.204;2022-10-16T00:49:46;100846.56;;;11.39;100.00
50133;BME280;46340;53.148;8.204;2022-10-16T00:52:15;100842.91;;;11.35;100.00
50133;BME280;46340;53.148;8.204;2022-10-16T00:54:40;100846.13;;;11.37;100.00
50133;BME280;46340;53.148;8.204;2022-10-16T00:57:05;100839.19;;;11.43;100.00
50133;BME280;46340;53.148;8.204;2022-10-16T00:59:32;100839.91;;;11.40;100.00
50133;BME280;46340;53.148;8.204;2022-10-16T01:02:03;100838.28;;;11.39;100.00
50133;BME280;46340;53.148;8.204;2022-10-16T01:04:32;100828.72;;;11.37;100.00
50133;BME280;46340;53.148;8.204;2022-10-16T01:07:10;100827.38;;;11.31;100.00
50133;BME280;46340;53.148;8.204;2022-10-16T01:10:14;100833.22;;;11.29;100.00
50133;BME280;46340;53.148;8.204;2022-10-16T01:13:04;100824.50;;;11.27;100.00
50133;BME280;46340;53.148;8.204;2022-10-16T01:15:53;100818.16;;;11.26;100.00
50133;BME280;46340;53.148;8.204;2022-10-16T01:18:30;100825.19;;;11.24;100.00
50133;BME280;46340;53.148;8.204;2022-10-16T01:21:04;100833.03;;;11.22;100.00
50133;BME280;46340;53.148;8.204;2022-10-16T01:23:56;100831.06;;;11.22;100.00
50133;BME280;46340;53.148;8.204;2022-10-16T01:29:39;100831.41;;;11.21;100.00
50133;BME280;46340;53.148;8.204;2022-10-16T01:38:03;100828.75;;;11.24;100.00
50133;BME280;46340;53.148;8.204;2022-10-16T01:40:36;100826.81;;;11.25;100.00
50133;BME280;46340;53.148;8.204;2022-10-16T01:43:08;100835.91;;;11.25;100.00
50133;BME280;46340;53.148;8.204;2022-10-16T01:45:51;100833.94;;;11.26;100.00
50133;BME280;46340;53.148;8.204;2022-10-16T01:48:18;100826.47;;;11.26;100.00
50133;BME280;46340;53.148;8.204;2022-10-16T01:50:48;100836.44;;;11.31;100.00
50133;BME280;46340;53.148;8.204;2022-10-16T01:53:19;100846.72;;;11.31;100.00
50133;BME280;46340;53.148;8.204;2022-10-16T01:55:46;100846.72;;;11.31;100.00
50133;BME280;46340;53.148;8.204;2022-10-16T01:58:14;100843.94;;;11.31;100.00
50133;BME280;46340;53.148;8.204;2022-10-16T02:00:41;100843.94;;;11.31;100.00
50133;BME280;46340;53.148;8.204;2022-10-16T02:03:09;100849.13;;;11.32;100.00
50133;BME280;46340;53.148;8.204;2022-10-16T02:05:49;100852.00;;;11.36;100.00
50133;BME280;46340;53.148;8.204;2022-10-16T02:08:18;100852.78;;;11.36;100.00
50133;BME280;46340;53.148;8.204;2022-10-16T02:10:44;100847.50;;;11.31;100.00
50133;BME280;46340;53.148;8.204;2022-10-16T02:13:15;100847.97;;;11.33;100.00
50133;BME280;46340;53.148;8.204;2022-10-16T02:15:46;100850.28;;;11.31;100.00
50133;BME280;46340;53.148;8.204;2022-10-16T02:18:12;100841.75;;;11.36;100.00
50133;BME280;46340;53.148;8.204;2022-10-16T02:21:40;100845.19;;;11.33;100.00
50133;BME280;46340;53.148;8.204;2022-10-16T02:26:19;100849.81;;;11.29;100.00
50133;BME280;46340;53.148;8.204;2022-10-16T02:28:55;100846.81;;;11.34;100.00
50133;BME280;46340;53.148;8.204;2022-10-16T02:31:29;100841.75;;;11.36;100.00
50133;BME280;46340;53.148;8.204;2022-10-16T02:33:59;100849.22;;;11.36;100.00
50133;BME280;46340;53.148;8.204;2022-10-16T02:36:26;100832.66;;;11.36;100.00
50133;BME280;46340;53.148;8.204;2022-10-16T02:38:52;100838.63;;;11.38;100.00
50133;BME280;46340;53.148;8.204;2022-10-16T02:41:19;100838.63;;;11.38;100.00
50133;BME280;46340;53.148;8.204;2022-10-16T02:43:46;100836.66;;;11.38;100.00
50133;BME280;46340;53.148;8.204;2022-10-16T02:46:11;100838.97;;;11.36;100.00
50133;BME280;46340;53.148;8.204;2022-10-16T02:48:37;100831.13;;;11.38;100.00
50133;BME280;46340;53.148;8.204;2022-10-16T02:51:02;100831.97;;;11.39;100.00
50133;BME280;46340;53.148;8.204;2022-10-16T02:53:27;100834.38;;;11.40;100.00
50133;BME280;46340;53.148;8.204;2022-10-16T02:55:53;100839.53;;;11.42;100.00
50133;BME280;46340;53.148;8.204;2022-10-16T02:58:18;100837.84;;;11.37;100.00
50133;BME280;46340;53.148;8.204;2022-10-16T03:00:43;100835.66;;;11.31;100.00
50133;BME280;46340;53.148;8.204;2022-10-16T03:03:08;100841.97;;;11.31;100.00
50133;BME280;46340;53.148;8.204;2022-10-16T03:05:34;100850.28;;;11.31;100.00
50133;BME280;46340;53.148;8.204;2022-10-16T03:07:59;100849.81;;;11.29;100.00
50133;BME280;46340;53.148;8.204;2022-10-16T03:10:25;100858.91;;;11.29;100.00
50133;BME280;46340;53.148;8.204;2022-10-16T03:12:51;100847.16;;;11.33;100.00
50133;BME280;46340;53.148;8.204;2022-10-16T03:15:16;100841.06;;;11.27;100.00
50133;BME280;46340;53.148;8.204;2022-10-16T03:17:41;100840.16;;;11.23;100.00
50133;BME280;46340;53.148;8.204;2022-10-16T03:20:13;100844.06;;;11.22;100.00
50133;BME280;46340;53.148;8.204;2022-10-16T03:22:38;100842.56;;;11.24;100.00
50133;BME280;46340;53.148;8.204;2022-10-16T03:25:04;100843.38;;;11.25;100.00
50133;BME280;46340;53.148;8.204;2022-10-16T03:27:29;100848.19;;;11.28;100.00
50133;BME280;46340;53.148;8.204;2022-10-16T03:29:55;100846.25;;;11.28;100.00
50133;BME280;46340;53.148;8.204;2022-10-16T03:32:20;100848.19;;;11.28;100.00
50133;BME280;46340;53.148;8.204;2022-10-16T03:34:46;100841.97;;;11.31;100.00
50133;BME280;46340;53.148;8.204;2022-10-16T03:37:12;100840.16;;;11.35;100.00
50133;BME280;46340;53.148;8.204;2022-10-16T03:39:37;100849.59;;;11.34;100.00
50133;BME280;46340;53.148;8.204;2022-10-16T03:42:02;100844.84;;;11.35;100.00
50133;BME280;46340;53.148;8.204;2022-10-16T03:44:30;100855.22;;;11.38;100.00
50133;BME280;46340;53.148;8.204;2022-10-16T03:46:58;100858.44;;;11.40;100.00
50133;BME280;46340;53.148;8.204;2022-10-16T03:49:24;100860.41;;;11.39;100.00
50133;BME280;46340;53.148;8.204;2022-10-16T03:51:49;100866.38;;;11.41;100.00
50133;BME280;46340;53.148;8.204;2022-10-16T03:54:14;100862.13;;;11.44;100.00
50133;BME280;46340;53.148;8.204;2022-10-16T03:56:40;100867.75;;;11.47;100.00
50133;BME280;46340;53.148;8.204;2022-10-16T03:59:05;100873.63;;;11.46;100.00
50133;BME280;46340;53.148;8.204;2022-10-16T04:01:30;100863.03;;;11.48;100.00
50133;BME280;46340;53.148;8.204;2022-10-16T04:03:56;100874.09;;;11.48;100.00
50133;BME280;46340;53.148;8.204;2022-10-16T04:06:21;100882.72;;;11.46;100.00
50133;BME280;46340;53.148;8.204;2022-10-16T04:08:46;100894.34;;;11.52;100.00
50133;BME280;46340;53.148;8.204;2022-10-16T04:11:11;100885.69;;;11.54;100.00
50133;BME280;46340;53.148;8.204;2022-10-16T04:13:37;100905.88;;;11.54;100.00
50133;BME280;46340;53.148;8.204;2022-10-16T04:16:02;100898.50;;;11.58;100.00
50133;BME280;46340;53.148;8.204;2022-10-16T04:18:28;100895.72;;;11.58;100.00
50133;BME280;46340;53.148;8.204;2022-10-16T04:20:55;100894.59;;;11.59;100.00
50133;BME280;46340;53.148;8.204;2022-10-16T04:23:21;100902.06;;;11.59;100.00
50133;BME280;46340;53.148;8.204;2022-10-16T04:25:47;100891.09;;;11.62;100.00
50133;BME280;46340;53.148;8.204;2022-10-16T04:28:13;100897.09;;;11.64;100.00
50133;BME280;46340;53.148;8.204;2022-10-16T04:30:38;100892.38;;;11.65;100.00
50133;BME280;46340;53.148;8.204;2022-10-16T04:33:04;100888.91;;;11.68;100.00
50133;BME280;46340;53.148;8.204;2022-10-16T04:35:30;100894.91;;;11.70;100.00
50133;BME280;46340;53.148;8.204;2022-10-16T04:37:57;100893.03;;;11.74;100.00
50133;BME280;46340;53.148;8.204;2022-10-16T04:40:23;100890.25;;;11.74;100.00
50133;BME280;46340;53.148;8.204;2022-10-16T04:42:48;100887.03;;;11.72;100.00
50133;BME280;46340;53.148;8.204;2022-10-16T04:45:14;100878.75;;;11.72;100.00
50133;BME280;46340;53.148;8.204;2022-10-16T04:47:39;100904.44;;;11.73;100.00
50133;BME280;46340;53.148;8.204;2022-10-16T04:50:05;100902.38;;;11.70;100.00
50133;BME280;46340;53.148;8.204;2022-10-16T04:52:31;100904.69;;;11.67;100.00
50133;BME280;46340;53.148;8.204;2022-10-16T04:54:56;100909.41;;;11.67;100.00
50133;BME280;46340;53.148;8.204;2022-10-16T04:57:25;100930.66;;;11.63;100.00
50133;BME280;46340;53.148;8.204;2022-10-16T04:59:51;100927.97;;;11.66;100.00
50133;BME280;46340;53.148;8.204;2022-10-16T05:02:17;100931.09;;;11.65;100.00
50133;BME280;46340;53.148;8.204;2022-10-16T05:04:42;100935.34;;;11.62;100.00
50133;BME280;46340;53.148;8.204;2022-10-16T05:07:08;100923.25;;;11.67;100.00
50133;BME280;46340;53.148;8.204;2022-10-16T05:09:33;100922.56;;;11.70;100.00
50133;BME280;46340;53.148;8.204;2022-10-16T05:11:58;100928.44;;;11.69;100.00
50133;BME280;46340;53.148;8.204;2022-10-16T05:14:24;100919.78;;;11.70;100.00
50133;BME280;46340;53.148;8.204;2022-10-16T05:16:49;100934.41;;;11.71;100.00
50133;BME280;46340;53.148;8.204;2022-10-16T05:19:14;100930.97;;;11.74;100.00
50133;BME280;46340;53.148;8.204;2022-10-16T05:21:40;100928.19;;;11.74;100.00
50133;BME280;46340;53.148;8.204;2022-10-16T05:24:05;100918.03;;;11.78;100.00
50133;BME280;46340;53.148;8.204;2022-10-16T05:26:30;100920.00;;;11.77;100.00
50133;BME280;46340;53.148;8.204;2022-10-16T05:28:56;100921.63;;;11.78;100.00
50133;BME280;46340;53.148;8.204;2022-10-16T05:31:21;100931.50;;;11.79;100.00
50133;BME280;46340;53.148;8.204;2022-10-16T05:33:46;100919.19;;;11.77;100.00
50133;BME280;46340;53.148;8.204;2022-10-16T05:36:12;100921.13;;;11.76;100.00
50133;BME280;46340;53.148;8.204;2022-10-16T05:38:37;100930.72;;;11.79;100.00
50133;BME280;46340;53.148;8.204;2022-10-16T05:41:03;100930.16;;;11.73;100.00
50133;BME280;46340;53.148;8.204;2022-10-16T05:43:31;100932.22;;;11.76;100.00
50133;BME280;46340;53.148;8.204;2022-10-16T05:45:58;100942.03;;;11.74;100.00
50133;BME280;46340;53.148;8.204;2022-10-16T05:48:25;100941.44;;;11.80;100.00
50133;BME280;46340;53.148;8.204;2022-10-16T05:51:00;100947.22;;;11.75;100.00
50133;BME280;46340;53.148;8.204;2022-10-16T05:53:27;100954.22;;;11.73;100.00
50133;BME280;46340;53.148;8.204;2022-10-16T05:55:54;100963.34;;;11.73;100.00
50133;BME280;46340;53.148;8.204;2022-10-16T05:58:23;100971.16;;;11.71;100.00
50133;BME280;46340;53.148;8.204;2022-10-16T06:00:54;100976.69;;;11.71;100.00
50133;BME280;46340;53.148;8.204;2022-10-16T06:03:21;100973.25;;;11.74;100.00
50133;BME280;46340;53.148;8.204;2022-10-16T06:05:47;100978.78;;;11.74;100.00
50133;BME280;46340;53.148;8.204;2022-10-16T06:08:12;100974.41;;;11.73;100.00
50133;BME280;46340;53.148;8.204;2022-10-16T06:10:38;100971.28;;;11.75;100.00
50133;BME280;46340;53.148;8.204;2022-10-16T06:13:03;100972.56;;;11.77;100.00
50133;BME280;46340;53.148;8.204;2022-10-16T06:15:28;100972.09;;;11.75;100.00
50133;BME280;46340;53.148;8.204;2022-10-16T06:17:54;100977.97;;;11.74;100.00
50133;BME280;46340;53.148;8.204;2022-10-16T06:20:19;100977.06;;;11.70;100.00
50133;BME280;46340;53.148;8.204;2022-10-16T06:22:44;100980.66;;;11.70;100.00
50133;BME280;46340;53.148;8.204;2022-10-16T06:25:10;100986.63;;;11.72;100.00
50133;BME280;46340;53.148;8.204;2022-10-16T06:27:35;100989.94;;;11.78;100.00
50133;BME280;46340;53.148;8.204;2022-10-16T06:30:00;100980.50;;;11.79;100.00
50133;BME280;46340;53.148;8.204;2022-10-16T06:32:26;100988.13;;;11.82;100.00
50133;BME280;46340;53.148;8.204;2022-10-16T06:34:52;100999.63;;;11.84;100.00
50133;BME280;46340;53.148;8.204;2022-10-16T06:37:17;101007.59;;;11.85;100.00
50133;BME280;46340;53.148;8.204;2022-10-16T06:39:46;101007.94;;;11.84;100.00
50133;BME280;46340;53.148;8.204;2022-10-16T06:42:12;101011.50;;;11.84;100.00
50133;BME280;46340;53.148;8.204;2022-10-16T06:44:37;101006.41;;;11.86;100.00
50133;BME280;46340;53.148;8.204;2022-10-16T06:47:02;101019.81;;;11.84;100.00
50133;BME280;46340;53.148;8.204;2022-10-16T06:49:28;101018.31;;;11.87;100.00
50133;BME280;46340;53.148;8.204;2022-10-16T06:51:53;101017.94;;;11.89;100.00
50133;BME280;46340;53.148;8.204;2022-10-16T06:54:19;101032.28;;;11.91;100.00
50133;BME280;46340;53.148;8.204;2022-10-16T06:56:44;101027.66;;;11.95;100.00
50133;BME280;46340;53.148;8.204;2022-10-16T06:59:09;101038.94;;;11.90;100.00
50133;BME280;46340;53.148;8.204;2022-10-16T07:01:35;101040.69;;;11.94;100.00
50133;BME280;46340;53.148;8.204;2022-10-16T07:04:01;101039.88;;;11.94;100.00
50133;BME280;46340;53.148;8.204;2022-10-16T07:06:27;101041.59;;;11.98;100.00
50133;BME280;46340;53.148;8.204;2022-10-16T07:08:55;101046.56;;;11.93;100.00
50133;BME280;46340;53.148;8.204;2022-10-16T07:11:21;101049.44;;;11.96;100.00
50133;BME280;46340;53.148;8.204;2022-10-16T07:13:48;101050.00;;;12.02;100.00
50133;BME280;46340;53.148;8.204;2022-10-16T07:16:18;101052.09;;;12.05;100.00
50133;BME280;46340;53.148;8.204;2022-10-16T07:18:45;101047.56;;;12.13;100.00
50133;BME280;46340;53.148;8.204;2022-10-16T07:21:15;101067.78;;;12.13;100.00
50133;BME280;46340;53.148;8.204;2022-10-16T07:23:42;101068.44;;;12.22;100.00
50133;BME280;46340;53.148;8.204;2022-10-16T07:26:08;101065.19;;;12.33;100.00
50133;BME280;46340;53.148;8.204;2022-10-16T07:28:34;101062.63;;;12.40;100.00
50133;BME280;46340;53.148;8.204;2022-10-16T07:31:10;101068.16;;;12.40;100.00
50133;BME280;46340;53.148;8.204;2022-10-16T07:33:38;101069.88;;;12.45;100.00
50133;BME280;46340;53.148;8.204;2022-10-16T07:36:04;101086.25;;;12.50;100.00
50133;BME280;46340;53.148;8.204;2022-10-16T07:38:30;101082.41;;;12.54;100.00
50133;BME280;46340;53.148;8.204;2022-10-16T07:41:00;101084.13;;;12.59;100.00
50133;BME280;46340;53.148;8.204;2022-10-16T07:43:35;101080.06;;;12.69;100.00
50133;BME280;46340;53.148;8.204;2022-10-16T07:46:00;101092.84;;;12.73;100.00
50133;BME280;46340;53.148;8.204;2022-10-16T07:48:29;101100.56;;;12.80;100.00
50133;BME280;46340;53.148;8.204;2022-10-16T07:51:06;101107.38;;;12.83;100.00
50133;BME280;46340;53.148;8.204;2022-10-16T07:53:52;101108.00;;;12.92;100.00
50133;BME280;46340;53.148;8.204;2022-10-16T07:56:29;101117.03;;;12.89;100.00
50133;BME280;46340;53.148;8.204;2022-10-16T07:58:58;101118.31;;;12.91;100.00
50133;BME280;46340;53.148;8.204;2022-10-16T08:01:23;101112.97;;;12.98;100.00
50133;BME280;46340;53.148;8.204;2022-10-16T08:03:49;101117.53;;;13.07;100.00
50133;BME280;46340;53.148;8.204;2022-10-16T08:06:19;101131.59;;;13.14;100.00
50133;BME280;46340;53.148;8.204;2022-10-16T08:08:45;101127.38;;;13.20;100.00
50133;BME280;46340;53.148;8.204;2022-10-16T08:11:11;101132.66;;;13.38;100.00
50133;BME280;46340;53.148;8.204;2022-10-16T08:13:36;101126.31;;;13.53;100.00
50133;BME280;46340;53.148;8.204;2022-10-16T08:16:02;101130.53;;;13.63;100.00
50133;BME280;46340;53.148;8.204;2022-10-16T08:18:32;101135.72;;;13.80;100.00
50133;BME280;46340;53.148;8.204;2022-10-16T08:20:59;101125.84;;;13.99;100.00
50133;BME280;46340;53.148;8.204;2022-10-16T08:23:25;101142.16;;;14.00;100.00
50133;BME280;46340;53.148;8.204;2022-10-16T08:25:51;101137.25;;;13.78;100.00
50133;BME280;46340;53.148;8.204;2022-10-16T08:28:18;101115.84;;;13.78;100.00
50133;BME280;46340;53.148;8.204;2022-10-16T08:30:44;101136.69;;;14.04;100.00
50133;BME280;46340;53.148;8.204;2022-10-16T08:33:09;101126.47;;;14.08;100.00
50133;BME280;46340;53.148;8.204;2022-10-16T08:35:34;101132.72;;;14.21;100.00
50133;BME280;46340;53.148;8.204;2022-10-16T08:38:00;101134.59;;;14.17;100.00
50133;BME280;46340;53.148;8.204;2022-10-16T08:40:28;101137.94;;;14.06;100.00
50133;BME280;46340;53.148;8.204;2022-10-16T08:43:08;101140.50;;;14.15;100.00
50133;BME280;46340;53.148;8.204;2022-10-16T08:48:28;101147.09;;;14.42;100.00
50133;BME280;46340;53.148;8.204;2022-10-16T08:51:00;101158.50;;;14.57;100.00
50133;BME280;46340;53.148;8.204;2022-10-16T08:53:44;101150.84;;;14.50;100.00
50133;BME280;46340;53.148;8.204;2022-10-16T08:56:14;101153.72;;;14.38;100.00
50133;BME280;46340;53.148;8.204;2022-10-16T08:58:40;101159.03;;;14.27;100.00
50133;BME280;46340;53.148;8.204;2022-10-16T09:01:14;101156.09;;;14.20;100.00
50133;BME280;46340;53.148;8.204;2022-10-16T09:09:16;101167.66;;;14.22;100.00
50133;BME280;46340;53.148;8.204;2022-10-16T09:11:53;101180.38;;;14.23;100.00
50133;BME280;46340;53.148;8.204;2022-10-16T09:14:35;101177.84;;;14.34;100.00
50133;BME280;46340;53.148;8.204;2022-10-16T09:20:10;101184.09;;;14.46;100.00
50133;BME280;46340;53.148;8.204;2022-10-16T09:22:38;101184.28;;;14.38;100.00
50133;BME280;46340;53.148;8.204;2022-10-16T09:25:15;101196.81;;;14.47;100.00
50133;BME280;46340;53.148;8.204;2022-10-16T09:27:44;101183.91;;;14.55;100.00
50133;BME280;46340;53.148;8.204;2022-10-16T09:30:12;101196.25;;;14.58;100.00
50133;BME280;46340;53.148;8.204;2022-10-16T09:32:40;101189.66;;;14.62;100.00
50133;BME280;46340;53.148;8.204;2022-10-16T09:35:11;101198.41;;;14.64;100.00
50133;BME280;46340;53.148;8.204;2022-10-16T09:37:41;101202.97;;;14.73;100.00
50133;BME280;46340;53.148;8.204;2022-10-16T09:40:25;101195.50;;;14.77;100.00
50133;BME280;46340;53.148;8.204;2022-10-16T09:43:10;101206.94;;;14.91;100.00
50133;BME280;46340;53.148;8.204;2022-10-16T09:45:54;101197.34;;;15.08;100.00
50133;BME280;46340;53.148;8.204;2022-10-16T09:48:25;101212.00;;;15.25;100.00
50133;BME280;46340;53.148;8.204;2022-10-16T09:51:00;101219.38;;;15.17;100.00
50133;BME280;46340;53.148;8.204;2022-10-16T09:53:37;101221.81;;;15.18;100.00
50133;BME280;46340;53.148;8.204;2022-10-16T09:56:04;101223.19;;;15.28;100.00
50133;BME280;46340;53.148;8.204;2022-10-16T09:58:31;101228.56;;;15.60;100.00
50133;BME280;46340;53.148;8.204;2022-10-16T10:00:58;101233.34;;;15.59;100.00
50133;BME280;46340;53.148;8.204;2022-10-16T10:03:45;101233.16;;;15.49;100.00
50133;BME280;46340;53.148;8.204;2022-10-16T10:08:57;101235.53;;;15.70;100.00
50133;BME280;46340;53.148;8.204;2022-10-16T10:14:23;101242.06;;;15.58;100.00
50133;BME280;46340;53.148;8.204;2022-10-16T10:19:30;101257.78;;;15.70;100.00
50133;BME280;46340;53.148;8.204;2022-10-16T10:22:11;101260.28;;;15.55;100.00
50133;BME280;46340;53.148;8.204;2022-10-16T10:24:44;101250.56;;;15.46;100.00
50133;BME280;46340;53.148;8.204;2022-10-16T10:27:19;101259.28;;;15.44;100.00
50133;BME280;46340;53.148;8.204;2022-10-16T10:29:47;101261.19;;;15.40;100.00
50133;BME280;46340;53.148;8.204;2022-10-16T10:32:26;101274.19;;;15.55;100.00
50133;BME280;46340;53.148;8.204;2022-10-16T10:35:22;101270.31;;;15.60;100.00
50133;BME280;46340;53.148;8.204;2022-10-16T10:40:39;101266.69;;;15.98;100.00
50133;BME280;46340;53.148;8.204;2022-10-16T10:46:12;101280.28;;;16.50;100.00
50133;BME280;46340;53.148;8.204;2022-10-16T10:48:54;101272.56;;;16.89;100.00
50133;BME280;46340;53.148;8.204;2022-10-16T10:51:26;101273.66;;;17.12;100.00
50133;BME280;46340;53.148;8.204;2022-10-16T10:54:18;101280.38;;;17.07;100.00
50133;BME280;46340;53.148;8.204;2022-10-16T10:56:57;101276.75;;;16.53;100.00
50133;BME280;46340;53.148;8.204;2022-10-16T11:02:52;101279.69;;;16.37;100.00
50133;BME280;46340;53.148;8.204;2022-10-16T11:05:40;101295.16;;;16.34;100.00
50133;BME280;46340;53.148;8.204;2022-10-16T11:08:18;101297.16;;;16.34;100.00
50133;BME280;46340;53.148;8.204;2022-10-16T11:13:55;101291.56;;;16.57;100.00
50133;BME280;46340;53.148;8.204;2022-10-16T11:22:22;101295.00;;;17.00;100.00
50133;BME280;46340;53.148;8.204;2022-10-16T11:33:19;101323.88;;;17.12;100.00
50133;BME280;46340;53.148;8.204;2022-10-16T11:35:53;101324.84;;;16.96;100.00
50133;BME280;46340;53.148;8.204;2022-10-16T11:41:43;101338.03;;;16.49;100.00
50133;BME280;46340;53.148;8.204;2022-10-16T11:46:40;101339.81;;;16.61;100.00
50133;BME280;46340;53.148;8.204;2022-10-16T11:49:21;101341.25;;;16.51;100.00
50133;BME280;46340;53.148;8.204;2022-10-16T11:52:02;101341.44;;;16.39;100.00
50133;BME280;46340;53.148;8.204;2022-10-16T11:54:49;101355.28;;;16.59;100.00
50133;BME280;46340;53.148;8.204;2022-10-16T11:57:26;101354.09;;;16.83;100.00
50133;BME280;46340;53.148;8.204;2022-10-16T11:59:58;101347.34;;;17.37;100.00
50133;BME280;46340;53.148;8.204;2022-10-16T12:02:35;101369.06;;;17.51;100.00
50133;BME280;46340;53.148;8.204;2022-10-16T12:05:16;101359.53;;;17.56;100.00
50133;BME280;46340;53.148;8.204;2022-10-16T12:08:14;101362.25;;;17.48;100.00
50133;BME280;46340;53.148;8.204;2022-10-16T12:10:42;101365.06;;;17.52;100.00
50133;BME280;46340;53.148;8.204;2022-10-16T12:18:36;101378.94;;;17.45;100.00
50133;BME280;46340;53.148;8.204;2022-10-16T12:21:03;101377.75;;;17.76;100.00
50133;BME280;46340;53.148;8.204;2022-10-16T12:23:32;101384.69;;;17.86;100.00
50133;BME280;46340;53.148;8.204;2022-10-16T12:26:02;101393.88;;;17.87;100.00
50133;BME280;46340;53.148;8.204;2022-10-16T12:28:29;101397.53;;;17.64;100.00
50133;BME280;46340;53.148;8.204;2022-10-16T12:31:01;101398.81;;;17.40;100.00
50133;BME280;46340;53.148;8.204;2022-10-16T12:33:35;101410.94;;;17.24;100.00
50133;BME280;46340;53.148;8.204;2022-10-16T12:36:09;101410.56;;;16.99;100.00
50133;BME280;46340;53.148;8.204;2022-10-16T12:38:44;101408.63;;;16.57;100.00
50133;BME280;46340;53.148;8.204;2022-10-16T12:41:10;101412.91;;;16.51;100.00
50133;BME280;46340;53.148;8.204;2022-10-16T12:43:38;101410.38;;;17.12;100.00
50133;BME280;46340;53.148;8.204;2022-10-16T12:48:37;101421.44;;;17.61;100.00
50133;BME280;46340;53.148;8.204;2022-10-16T12:51:25;101433.22;;;17.78;100.00
50133;BME280;46340;53.148;8.204;2022-10-16T12:54:03;101426.59;;;17.86;100.00
50133;BME280;46340;53.148;8.204;2022-10-16T12:56:36;101424.22;;;17.88;100.00
50133;BME280;46340;53.148;8.204;2022-10-16T13:04:55;101421.34;;;18.97;100.00
50133;BME280;46340;53.148;8.204;2022-10-16T13:07:44;101436.56;;;18.58;100.00
50133;BME280;46340;53.148;8.204;2022-10-16T13:10:24;101434.66;;;18.29;100.00
50133;BME280;46340;53.148;8.204;2022-10-16T13:13:07;101438.31;;;18.33;100.00
50133;BME280;46340;53.148;8.204;2022-10-16T13:29:29;101453.19;;;19.30;100.00
50133;BME280;46340;53.148;8.204;2022-10-16T13:31:55;101455.53;;;19.21;100.00
50133;BME280;46340;53.148;8.204;2022-10-16T13:34:22;101456.47;;;19.43;100.00
50133;BME280;46340;53.148;8.204;2022-10-16T13:36:49;101460.81;;;19.33;100.00
50133;BME280;46340;53.148;8.204;2022-10-16T13:39:21;101460.56;;;19.01;100.00
50133;BME280;46340;53.148;8.204;2022-10-16T13:42:02;101468.06;;;19.45;100.00
50133;BME280;46340;53.148;8.204;2022-10-16T13:44:42;101475.59;;;19.30;100.00
50133;BME280;46340;53.148;8.204;2022-10-16T13:47:15;101482.97;;;19.04;100.00
50133;BME280;46340;53.148;8.204;2022-10-16T13:50:11;101482.22;;;18.70;100.00
50133;BME280;46340;53.148;8.204;2022-10-16T13:52:39;101493.88;;;18.79;100.00
50133;BME280;46340;53.148;8.204;2022-10-16T13:55:12;101493.84;;;18.04;100.00
50133;BME280;46340;53.148;8.204;2022-10-16T13:57:40;101495.06;;;18.03;100.00
50133;BME280;46340;53.148;8.204;2022-10-16T14:00:19;101498.06;;;17.91;100.00
50133;BME280;46340;53.148;8.204;2022-10-16T14:02:49;101495.97;;;18.14;100.00
50133;BME280;46340;53.148;8.204;2022-10-16T14:05:20;101501.97;;;17.59;100.00
50133;BME280;46340;53.148;8.204;2022-10-16T14:07:49;101503.81;;;17.75;100.00
50133;BME280;46340;53.148;8.204;2022-10-16T14:10:23;101511.84;;;17.80;100.00
50133;BME280;46340;53.148;8.204;2022-10-16T14:12:56;101518.78;;;17.63;100.00
50133;BME280;46340;53.148;8.204;2022-10-16T14:15:22;101521.63;;;17.66;100.00
50133;BME280;46340;53.148;8.204;2022-10-16T14:17:49;101517.91;;;17.85;100.00
50133;BME280;46340;53.148;8.204;2022-10-16T14:20:16;101514.97;;;17.75;100.00
50133;BME280;46340;53.148;8.204;2022-10-16T14:22:42;101516.91;;;17.97;100.00
50133;BME280;46340;53.148;8.204;2022-10-16T14:28:02;101529.06;;;17.55;100.00
50133;BME280;46340;53.148;8.204;2022-10-16T14:36:05;101527.91;;;17.10;100.00